createdAt,value
2023-02-03T00:14:32.253Z,22
2023-02-03T00:38:32.271Z,22
2023-02-03T01:05:32.298Z,21
2023-02-03T01:27:32.298Z,23
2023-02-03T01:29:32.306Z,23
2023-02-03T01:30:32.359Z,23
2023-02-03T01:31:32.428Z,21
2023-02-03T02:41:32.267Z,17
2023-02-03T03:09:42.301Z,14
2023-02-03T03:29:32.271Z,11
2023-02-03T03:59:32.281Z,8
2023-02-03T04:09:48.444Z,8
2023-02-03T04:59:32.296Z,8
2023-02-03T06:21:32.329Z,5
2023-02-03T08:30:42.324Z,5
2023-02-03T08:51:32.332Z,5
2023-02-03T09:30:48.453Z,5
2023-02-03T10:30:54.591Z,5
2023-02-03T12:20:32.357Z,5
2023-02-03T12:36:32.329Z,5
2023-02-03T12:58:34.480Z,4
2023-02-03T12:59:32.332Z,5
2023-02-03T13:01:32.337Z,4
2023-02-03T13:02:32.591Z,5
2023-02-03T13:03:32.333Z,4
2023-02-03T13:04:32.434Z,4
2023-02-03T13:06:32.349Z,5
2023-02-03T13:07:32.340Z,5
2023-02-03T13:08:32.364Z,5
2023-02-03T13:09:32.408Z,5
2023-02-03T13:10:32.347Z,4
2023-02-03T13:11:32.358Z,4
2023-02-03T13:12:32.337Z,4
2023-02-03T13:13:32.389Z,4
2023-02-03T13:14:32.424Z,4
2023-02-03T13:15:32.335Z,4
2023-02-03T13:16:32.426Z,5
2023-02-03T13:17:32.343Z,4
2023-02-03T13:18:32.337Z,5
2023-02-03T13:19:32.338Z,5
2023-02-03T13:20:32.350Z,4
2023-02-03T13:21:32.390Z,4
2023-02-03T13:22:32.344Z,5
2023-02-03T13:23:32.337Z,4
2023-02-03T13:25:32.336Z,4
2023-02-03T13:26:32.348Z,4
2023-02-03T13:27:32.350Z,4
2023-02-03T13:28:32.431Z,4
2023-02-03T13:29:32.339Z,4
2023-02-03T13:30:32.356Z,5
2023-02-03T13:32:32.343Z,4
2023-02-03T13:33:32.345Z,4
2023-02-03T13:34:32.345Z,5
2023-02-03T13:35:34.562Z,5
2023-02-03T13:36:32.396Z,4
2023-02-03T13:37:32.373Z,4
2023-02-03T13:38:32.398Z,4
2023-02-03T13:39:32.355Z,4
2023-02-03T13:40:32.347Z,4
2023-02-03T13:41:32.365Z,5
2023-02-03T13:42:32.380Z,4
2023-02-03T13:43:38.691Z,5
2023-02-03T13:45:32.409Z,4
2023-02-03T13:46:32.401Z,4
2023-02-03T13:47:32.341Z,5
2023-02-03T13:48:32.348Z,4
2023-02-03T13:49:32.367Z,5
2023-02-03T13:50:32.346Z,4
2023-02-03T13:52:32.365Z,4
2023-02-03T13:53:32.380Z,4
2023-02-03T13:54:32.362Z,4
2023-02-03T13:55:32.355Z,5
2023-02-03T13:56:32.349Z,5
2023-02-03T13:57:32.334Z,5
2023-02-03T13:58:32.348Z,5
2023-02-03T13:59:32.981Z,5
2023-02-03T14:01:33.122Z,4
2023-02-03T14:02:32.340Z,5
2023-02-03T14:03:32.380Z,5
2023-02-03T14:04:32.371Z,5
2023-02-03T14:05:32.339Z,5
2023-02-03T14:06:32.400Z,5
2023-02-03T14:07:32.402Z,5
2023-02-03T14:08:32.429Z,5
2023-02-03T14:09:32.346Z,5
2023-02-03T14:10:32.445Z,5
2023-02-03T14:11:32.387Z,5
2023-02-03T14:12:32.368Z,5
2023-02-03T14:13:32.383Z,5
2023-02-03T14:14:32.337Z,5
2023-02-03T14:16:32.382Z,5
2023-02-03T14:17:32.393Z,5
2023-02-03T14:18:32.412Z,4
2023-02-03T14:19:32.347Z,5
2023-02-03T14:20:32.348Z,5
2023-02-03T14:21:32.346Z,5
2023-02-03T14:22:32.464Z,5
2023-02-03T14:23:32.362Z,5
2023-02-03T14:25:32.347Z,5
2023-02-03T14:26:32.360Z,4
2023-02-03T14:27:32.356Z,5
2023-02-03T14:28:32.352Z,5
2023-02-03T14:29:32.425Z,5
2023-02-03T14:30:32.434Z,5
2023-02-03T14:31:32.511Z,6
2023-02-03T14:32:32.916Z,5
2023-02-03T14:33:32.428Z,4
2023-02-03T14:34:32.346Z,5
2023-02-03T14:35:32.339Z,5
2023-02-03T14:36:32.366Z,5
2023-02-03T14:38:32.378Z,5
2023-02-03T14:39:32.346Z,6
2023-02-03T14:40:32.389Z,6
2023-02-03T14:41:32.349Z,5
2023-02-03T14:43:32.485Z,5
2023-02-03T14:44:32.337Z,5
2023-02-03T14:45:32.348Z,5
2023-02-03T14:47:32.350Z,6
2023-02-03T14:48:32.465Z,5
2023-02-03T14:49:32.415Z,6
2023-02-03T14:50:32.421Z,6
2023-02-03T14:53:32.346Z,6
2023-02-03T14:54:32.348Z,5
2023-02-03T14:55:32.388Z,6
2023-02-03T14:56:32.354Z,6
2023-02-03T14:57:32.418Z,5
2023-02-03T14:58:34.201Z,6
2023-02-03T14:59:32.338Z,5
2023-02-03T15:00:32.347Z,6
2023-02-03T15:01:32.393Z,5
2023-02-03T15:02:32.355Z,6
2023-02-03T15:03:32.388Z,6
2023-02-03T15:04:32.427Z,6
2023-02-03T15:05:32.349Z,6
2023-02-03T15:06:32.357Z,6
2023-02-03T15:07:32.353Z,5
2023-02-03T15:08:32.353Z,6
2023-02-03T15:09:32.387Z,5
2023-02-03T15:10:32.349Z,5
2023-02-03T15:11:32.411Z,6
2023-02-03T15:12:32.362Z,5
2023-02-03T15:13:32.500Z,6
2023-02-03T15:15:32.575Z,6
2023-02-03T15:16:32.420Z,6
2023-02-03T15:17:32.528Z,6
2023-02-03T15:18:32.431Z,5
2023-02-03T15:19:32.375Z,6
2023-02-03T15:20:32.351Z,6
2023-02-03T15:21:32.404Z,6
2023-02-03T15:22:32.347Z,6
2023-02-03T15:23:32.388Z,6
2023-02-03T15:24:32.482Z,6
2023-02-03T15:26:32.519Z,6
2023-02-03T15:28:32.354Z,6
2023-02-03T15:29:32.423Z,6
2023-02-03T15:30:32.383Z,7
2023-02-03T15:31:32.551Z,6
2023-02-03T15:32:32.348Z,5
2023-02-03T15:33:32.364Z,6
2023-02-03T15:34:32.361Z,6
2023-02-03T15:36:32.360Z,6
2023-02-03T15:37:32.365Z,6
2023-02-03T15:38:32.359Z,7
2023-02-03T15:39:32.367Z,7
2023-02-03T15:40:32.414Z,6
2023-02-03T15:41:32.358Z,5
2023-02-03T15:42:32.384Z,6
2023-02-03T15:43:32.355Z,6
2023-02-03T15:44:32.352Z,6
2023-02-03T15:45:32.750Z,5
2023-02-03T15:46:32.404Z,5
2023-02-03T15:47:32.355Z,6
2023-02-03T15:48:32.352Z,6
2023-02-03T15:49:32.347Z,6
2023-02-03T15:50:32.585Z,6
2023-02-03T15:51:54.453Z,6
2023-02-03T15:52:32.353Z,6
2023-02-03T15:53:45.349Z,6
2023-02-03T15:54:32.361Z,6
2023-02-03T15:55:32.658Z,6
2023-02-03T15:56:32.355Z,6
2023-02-03T15:57:32.361Z,6
2023-02-03T15:58:32.349Z,7
2023-02-03T15:59:32.364Z,6
2023-02-03T16:00:32.354Z,6
2023-02-03T16:01:32.420Z,5
2023-02-03T16:02:32.393Z,6
2023-02-03T16:03:32.363Z,6
2023-02-03T16:04:32.357Z,6
2023-02-03T16:05:32.863Z,6
2023-02-03T16:06:32.358Z,6
2023-02-03T16:07:32.390Z,7
2023-02-03T16:08:32.354Z,7
2023-02-03T16:09:32.365Z,6
2023-02-03T16:10:32.388Z,7
2023-02-03T16:11:32.394Z,6
2023-02-03T16:12:32.376Z,7
2023-02-03T16:14:32.395Z,6
2023-02-03T16:15:32.419Z,7
2023-02-03T16:16:32.357Z,6
2023-02-03T16:17:32.398Z,5
2023-02-03T16:19:32.407Z,6
2023-02-03T16:20:32.369Z,7
2023-02-03T16:21:32.360Z,6
2023-02-03T16:22:32.440Z,6
2023-02-03T16:23:32.372Z,6
2023-02-03T16:24:32.365Z,6
2023-02-03T16:25:32.580Z,6
2023-02-03T16:26:32.361Z,6
2023-02-03T16:27:32.456Z,7
2023-02-03T16:28:32.590Z,7
2023-02-03T16:29:32.425Z,5
2023-02-03T16:30:32.368Z,7
2023-02-03T16:31:32.504Z,7
2023-02-03T16:32:32.366Z,6
2023-02-03T16:33:32.376Z,8
2023-02-03T16:34:32.487Z,7
2023-02-03T16:35:32.639Z,6
2023-02-03T16:36:32.366Z,6
2023-02-03T16:38:32.359Z,6
2023-02-03T16:39:32.361Z,7
2023-02-03T16:40:32.380Z,6
2023-02-03T16:41:32.362Z,6
2023-02-03T16:42:32.380Z,6
2023-02-03T16:44:32.387Z,6
2023-02-03T16:45:32.801Z,6
2023-02-03T16:46:32.366Z,6
2023-02-03T16:47:32.385Z,6
2023-02-03T16:48:32.374Z,6
2023-02-03T16:49:32.400Z,6
2023-02-03T16:50:38.338Z,6
2023-02-03T16:52:32.365Z,7
2023-02-03T16:53:32.375Z,7
2023-02-03T16:54:32.359Z,6
2023-02-03T16:55:32.648Z,6
2023-02-03T16:56:32.436Z,5
2023-02-03T16:57:32.395Z,6
2023-02-03T16:58:32.400Z,6
2023-02-03T16:59:32.381Z,6
2023-02-03T17:00:32.417Z,6
2023-02-03T17:01:32.657Z,6
2023-02-03T17:02:32.509Z,6
2023-02-03T17:03:32.378Z,6
2023-02-03T17:04:32.384Z,6
2023-02-03T17:06:32.367Z,6
2023-02-03T17:07:32.380Z,6
2023-02-03T17:08:32.415Z,6
2023-02-03T17:09:32.374Z,7
2023-02-03T17:10:32.370Z,6
2023-02-03T17:11:32.369Z,6
2023-02-03T17:12:32.377Z,7
2023-02-03T17:13:32.402Z,6
2023-02-03T17:14:32.390Z,6
2023-02-03T17:15:32.634Z,7
2023-02-03T17:16:32.460Z,6
2023-02-03T17:17:32.369Z,7
2023-02-03T17:19:32.371Z,6
2023-02-03T17:20:32.379Z,6
2023-02-03T17:21:32.543Z,6
2023-02-03T17:22:32.368Z,6
2023-02-03T17:23:33.827Z,6
2023-02-03T17:24:32.378Z,7
2023-02-03T17:25:32.379Z,6
2023-02-03T17:26:32.388Z,7
2023-02-03T17:27:32.407Z,7
2023-02-03T17:28:33.162Z,6
2023-02-03T17:30:32.553Z,7
2023-02-03T17:31:32.504Z,7
2023-02-03T17:32:32.394Z,7
2023-02-03T17:33:32.367Z,7
2023-02-03T17:34:32.390Z,7
2023-02-03T17:35:32.446Z,7
2023-02-03T17:36:32.407Z,6
2023-02-03T17:37:32.389Z,7
2023-02-03T17:38:32.398Z,6
2023-02-03T18:37:32.354Z,7
2023-02-03T18:38:32.769Z,7
2023-02-03T18:39:33.365Z,8
2023-02-03T18:40:34.411Z,7
2023-02-03T18:41:32.409Z,7
2023-02-03T18:43:32.692Z,8
2023-02-03T18:45:33.105Z,7
2023-02-03T18:46:32.483Z,7
2023-02-03T18:48:32.362Z,7
2023-02-03T18:50:32.693Z,7
2023-02-03T18:51:32.359Z,6
2023-02-03T18:52:32.388Z,7
2023-02-03T18:53:32.392Z,7
2023-02-03T18:54:33.301Z,6
2023-02-03T18:55:32.546Z,7
2023-02-03T18:56:32.388Z,7
2023-02-03T18:57:32.365Z,6
2023-02-03T18:58:32.374Z,7
2023-02-03T18:59:32.360Z,6
2023-02-03T19:00:32.652Z,7
2023-02-03T19:01:32.463Z,6
2023-02-03T19:02:50.657Z,7
2023-02-03T19:03:32.365Z,8
2023-02-03T19:04:32.364Z,7
2023-02-03T19:06:32.355Z,7
2023-02-03T19:08:33.878Z,7
2023-02-03T19:09:33.694Z,7
2023-02-03T19:11:32.354Z,7
2023-02-03T19:13:32.355Z,6
2023-02-03T19:14:32.385Z,7
2023-02-03T19:15:32.470Z,7
2023-02-03T19:16:32.401Z,7
2023-02-03T19:17:32.374Z,6
2023-02-03T19:18:32.397Z,7
2023-02-03T19:19:32.375Z,6
2023-02-03T19:20:32.382Z,6
2023-02-03T19:21:32.382Z,7
2023-02-03T19:22:32.823Z,6
2023-02-03T19:23:32.408Z,6
2023-02-03T19:24:32.385Z,6
2023-02-03T19:25:32.427Z,6
2023-02-03T19:26:32.400Z,6
2023-02-03T19:27:32.404Z,7
2023-02-03T19:28:34.506Z,6
2023-02-03T19:30:35.588Z,6
2023-02-03T19:32:33.709Z,6
2023-02-03T19:33:32.416Z,7
2023-02-03T20:02:48.124Z,7
2023-02-03T20:24:32.382Z,6
2023-02-03T20:49:32.388Z,5
2023-02-03T20:50:41.930Z,6
2023-02-03T20:51:32.395Z,6
2023-02-03T20:52:32.390Z,6
2023-02-03T20:53:32.383Z,6
2023-02-03T20:54:32.384Z,6
2023-02-03T20:55:32.398Z,6
2023-02-03T20:57:32.404Z,6
2023-02-03T20:58:32.413Z,6
2023-02-03T20:59:32.464Z,6
2023-02-03T21:00:32.700Z,5
2023-02-03T21:26:32.404Z,6
2023-02-03T22:19:32.401Z,7
2023-02-03T22:20:32.457Z,6
2023-02-03T22:21:32.415Z,7
2023-02-03T22:22:32.404Z,6
2023-02-03T22:23:32.401Z,6
2023-02-03T22:24:32.396Z,6
2023-02-03T22:25:32.406Z,7
2023-02-03T22:28:32.416Z,6
2023-02-03T22:29:33.333Z,7
2023-02-03T22:30:32.913Z,6
2023-02-03T22:33:32.406Z,6
2023-02-03T22:34:32.413Z,6
2023-02-03T22:35:32.587Z,6
2023-02-03T22:36:32.404Z,7
2023-02-03T22:37:32.411Z,7
2023-02-03T22:38:32.416Z,6
2023-02-03T22:40:32.766Z,7
2023-02-03T22:41:32.392Z,7
2023-02-03T22:43:32.425Z,6
2023-02-03T22:45:32.560Z,6
2023-02-03T23:02:32.522Z,7
